createdAt,value
2023-02-21T00:00:30.125Z,17.67
2023-02-21T00:02:56.879Z,17.25
2023-02-21T00:05:25.134Z,19.75
2023-02-21T00:07:51.980Z,13.13
2023-02-21T00:10:18.847Z,18.88
2023-02-21T00:12:45.610Z,17.95
2023-02-21T00:15:12.382Z,17.52
2023-02-21T00:17:39.141Z,18.75
2023-02-21T00:20:06.221Z,20.00
2023-02-21T00:22:34.337Z,18.98
2023-02-21T00:25:01.065Z,19.80
2023-02-21T00:27:27.786Z,20.08
2023-02-21T00:29:54.547Z,19.73
2023-02-21T00:32:21.272Z,17.38
2023-02-21T00:34:48.037Z,19.58
2023-02-21T00:37:14.801Z,19.60
2023-02-21T00:39:42.872Z,20.08
2023-02-21T00:42:09.643Z,20.53
2023-02-21T00:44:36.411Z,20.95
2023-02-21T00:47:03.238Z,22.38
2023-02-21T00:49:29.989Z,13.80
2023-02-21T00:51:56.709Z,22.75
2023-02-21T00:54:23.436Z,20.63
2023-02-21T00:56:51.580Z,21.15
2023-02-21T00:59:18.364Z,20.88
2023-02-21T01:01:45.169Z,18.23
2023-02-21T01:04:12.097Z,20.67
2023-02-21T01:06:38.916Z,17.08
2023-02-21T01:09:05.941Z,16.75
2023-02-21T01:11:33.561Z,20.60
2023-02-21T01:14:02.003Z,19.17
2023-02-21T01:16:29.269Z,23.15
2023-02-21T01:18:56.028Z,22.83
2023-02-21T01:21:23.022Z,23.83
2023-02-21T01:23:49.809Z,19.48
2023-02-21T01:26:16.617Z,18.65
2023-02-21T01:28:43.439Z,19.20
2023-02-21T01:31:11.600Z,22.08
2023-02-21T01:33:39.799Z,23.60
2023-02-21T01:36:07.671Z,20.37
2023-02-21T01:38:35.132Z,22.92
2023-02-21T01:41:01.946Z,23.45
2023-02-21T01:43:29.555Z,22.17
2023-02-21T01:45:56.318Z,22.95
2023-02-21T01:48:25.527Z,24.75
2023-02-21T01:50:53.292Z,20.85
2023-02-21T01:53:23.802Z,23.90
2023-02-21T01:55:50.674Z,22.20
2023-02-21T01:58:18.065Z,23.95
2023-02-21T02:00:45.199Z,22.27
2023-02-21T02:03:15.539Z,23.50
2023-02-21T02:05:46.109Z,23.92
2023-02-21T02:08:13.598Z,26.25
2023-02-21T02:10:41.516Z,20.90
2023-02-21T02:13:27.002Z,17.75
2023-02-21T02:15:59.986Z,17.80
2023-02-21T02:18:57.878Z,23.23
2023-02-21T02:21:57.067Z,23.07
2023-02-21T02:24:59.578Z,23.60
2023-02-21T02:27:53.669Z,19.27
2023-02-21T02:31:06.312Z,19.02
2023-02-21T02:34:10.291Z,16.95
2023-02-21T02:36:42.468Z,17.33
2023-02-21T02:39:18.082Z,23.63
2023-02-21T02:41:52.700Z,19.75
2023-02-21T02:44:24.785Z,20.42
2023-02-21T02:46:54.269Z,19.55
2023-02-21T02:49:23.367Z,22.90
2023-02-21T02:51:52.646Z,22.60
2023-02-21T02:54:19.632Z,22.02
2023-02-21T02:56:47.548Z,25.73
2023-02-21T02:59:17.818Z,24.83
2023-02-21T03:02:22.323Z,20.38
2023-02-21T03:05:12.400Z,25.60
2023-02-21T03:07:50.879Z,27.08
2023-02-21T03:10:23.279Z,23.38
2023-02-21T03:13:02.314Z,26.63
2023-02-21T03:15:35.209Z,28.15
2023-02-21T03:18:07.384Z,26.05
2023-02-21T03:20:35.166Z,20.60
2023-02-21T03:23:05.628Z,22.50
2023-02-21T03:25:34.230Z,21.20
2023-02-21T03:28:02.642Z,24.70
2023-02-21T03:30:30.031Z,25.38
2023-02-21T03:32:57.589Z,23.15
2023-02-21T03:35:28.639Z,21.30
2023-02-21T03:37:55.458Z,25.73
2023-02-21T03:40:25.990Z,25.23
2023-02-21T03:42:54.313Z,27.33
2023-02-21T03:45:21.981Z,22.60
2023-02-21T03:47:48.954Z,28.15
2023-02-21T03:50:16.003Z,28.15
2023-02-21T03:52:42.736Z,25.02
2023-02-21T03:55:09.505Z,17.00
2023-02-21T03:57:37.596Z,26.35
2023-02-21T04:00:05.345Z,25.67
2023-02-21T04:02:32.067Z,25.48
2023-02-21T04:04:59.235Z,23.90
2023-02-21T04:07:26.397Z,17.58
2023-02-21T04:09:53.115Z,22.15
2023-02-21T04:12:19.948Z,22.48
2023-02-21T04:14:48.106Z,23.35
2023-02-21T04:17:14.881Z,25.60
2023-02-21T04:19:41.724Z,22.23
2023-02-21T04:22:08.512Z,20.13
2023-02-21T04:24:35.234Z,23.48
2023-02-21T04:27:02.078Z,26.90
2023-02-21T04:29:28.832Z,25.85
2023-02-21T04:31:57.087Z,28.20
2023-02-21T04:34:23.995Z,26.63
2023-02-21T04:36:51.036Z,19.65
2023-02-21T04:39:17.865Z,24.85
2023-02-21T04:41:44.643Z,24.90
2023-02-21T04:44:12.479Z,24.52
2023-02-21T04:46:39.314Z,26.70
2023-02-21T04:49:07.428Z,27.27
2023-02-21T04:51:34.160Z,26.60
2023-02-21T04:54:00.919Z,25.40
2023-02-21T04:56:27.862Z,24.88
2023-02-21T04:58:54.761Z,23.42
2023-02-21T05:01:22.091Z,24.15
2023-02-21T05:03:49.419Z,19.58
2023-02-21T05:06:21.929Z,23.80
2023-02-21T05:08:48.961Z,25.45
2023-02-21T05:11:16.055Z,26.13
2023-02-21T05:13:45.924Z,23.35
2023-02-21T05:16:12.777Z,19.88
2023-02-21T05:18:41.883Z,21.88
2023-02-21T05:23:37.187Z,22.20
2023-02-21T05:26:06.450Z,24.88
2023-02-21T05:28:33.627Z,23.58
2023-02-21T05:31:01.156Z,24.33
2023-02-21T05:33:28.346Z,23.65
2023-02-21T05:35:55.622Z,23.90
2023-02-21T05:38:23.900Z,22.45
2023-02-21T05:40:52.126Z,24.23
2023-02-21T05:43:19.239Z,26.65
2023-02-21T05:45:46.069Z,20.83
2023-02-21T05:48:12.958Z,25.60
2023-02-21T05:50:39.748Z,21.70
2023-02-21T05:53:07.195Z,19.77
2023-02-21T05:55:33.944Z,24.15
2023-02-21T05:58:01.985Z,23.80
2023-02-21T06:00:30.566Z,24.63
2023-02-21T06:02:57.422Z,25.35
2023-02-21T06:05:24.348Z,20.25
2023-02-21T06:07:51.697Z,25.55
2023-02-21T06:10:19.604Z,23.13
2023-02-21T06:12:47.207Z,19.87
2023-02-21T06:15:15.334Z,24.00
2023-02-21T06:17:42.750Z,20.17
2023-02-21T06:20:12.802Z,18.90
2023-02-21T06:22:41.125Z,24.50
2023-02-21T06:25:08.683Z,19.90
2023-02-21T06:27:35.534Z,25.27
2023-02-21T06:30:02.430Z,20.55
2023-02-21T06:32:30.546Z,22.27
2023-02-21T06:34:57.335Z,26.77
2023-02-21T06:37:24.102Z,20.17
2023-02-21T06:39:50.930Z,24.05
2023-02-21T06:42:18.442Z,20.95
2023-02-21T06:44:45.922Z,24.95
2023-02-21T06:47:12.859Z,23.83
2023-02-21T06:49:41.084Z,23.17
2023-02-21T06:52:08.624Z,27.33
2023-02-21T06:54:35.458Z,24.02
2023-02-21T06:57:02.299Z,25.67
2023-02-21T06:59:29.216Z,25.08
2023-02-21T07:01:56.278Z,24.77
2023-02-21T07:04:24.309Z,23.30
2023-02-21T07:06:53.071Z,24.02
2023-02-21T07:09:19.881Z,23.38
2023-02-21T07:11:46.871Z,24.52
2023-02-21T07:14:14.140Z,23.05
2023-02-21T07:16:41.148Z,25.73
2023-02-21T07:19:07.918Z,25.08
2023-02-21T07:21:34.955Z,22.38
2023-02-21T07:24:03.497Z,21.90
2023-02-21T07:26:30.248Z,20.25
2023-02-21T07:28:57.074Z,24.05
2023-02-21T07:31:24.081Z,23.52
2023-02-21T07:33:50.943Z,25.23
2023-02-21T07:36:17.712Z,26.55
2023-02-21T07:38:44.511Z,17.30
2023-02-21T07:41:14.952Z,16.17
2023-02-21T07:43:42.000Z,24.42
2023-02-21T07:46:10.080Z,24.45
2023-02-21T07:48:36.821Z,22.70
2023-02-21T07:51:03.751Z,24.98
2023-02-21T07:53:30.515Z,17.52
2023-02-21T07:55:57.272Z,22.42
2023-02-21T07:58:25.403Z,21.65
2023-02-21T08:00:52.527Z,22.50
2023-02-21T08:03:19.258Z,19.52
2023-02-21T08:05:46.064Z,21.33
2023-02-21T08:08:15.040Z,21.23
2023-02-21T08:10:41.782Z,21.05
2023-02-21T08:13:08.547Z,19.92
2023-02-21T08:15:36.683Z,21.73
2023-02-21T08:18:03.590Z,14.50
2023-02-21T08:20:30.323Z,19.55
2023-02-21T08:22:57.105Z,17.23
2023-02-21T08:25:24.850Z,19.85
2023-02-21T08:27:51.580Z,14.90
2023-02-21T08:30:19.182Z,19.00
2023-02-21T08:32:47.252Z,15.30
2023-02-21T08:35:15.090Z,17.93
2023-02-21T08:37:44.406Z,18.15
2023-02-21T08:40:11.950Z,15.52
2023-02-21T08:42:38.692Z,16.30
2023-02-21T08:45:05.933Z,16.58
2023-02-21T08:47:35.038Z,13.10
2023-02-21T08:50:03.666Z,17.05
2023-02-21T08:52:30.462Z,17.98
2023-02-21T08:54:57.364Z,12.63
2023-02-21T08:57:24.108Z,17.77
2023-02-21T08:59:50.862Z,16.50
2023-02-21T09:02:20.203Z,13.32
2023-02-21T09:04:47.773Z,30.00
2023-02-21T09:07:17.774Z,19.27
2023-02-21T09:09:44.895Z,10.20
2023-02-21T09:12:11.899Z,17.08
2023-02-21T09:14:40.782Z,12.80
2023-02-21T09:17:09.328Z,13.98
2023-02-21T09:19:36.066Z,16.02
2023-02-21T09:22:02.977Z,17.27
2023-02-21T09:24:31.035Z,17.00
2023-02-21T09:26:59.201Z,15.23
2023-02-21T09:29:31.508Z,15.45
2023-02-21T09:32:01.864Z,16.00
2023-02-21T09:34:29.466Z,14.50
2023-02-21T09:36:56.677Z,13.82
2023-02-21T09:39:24.266Z,13.82
2023-02-21T09:41:52.929Z,15.70
2023-02-21T09:44:22.847Z,14.88
2023-02-21T09:46:52.447Z,11.43
2023-02-21T09:49:24.066Z,13.27
2023-02-21T09:51:51.862Z,15.15
2023-02-21T09:54:24.064Z,9.50
2023-02-21T09:56:52.101Z,14.48
2023-02-21T09:59:18.866Z,13.47
2023-02-21T10:02:03.029Z,15.30
2023-02-21T10:04:42.946Z,12.02
2023-02-21T10:07:13.947Z,10.85
2023-02-21T10:09:46.334Z,15.77
2023-02-21T10:12:24.305Z,13.80
2023-02-21T10:15:05.545Z,16.47
2023-02-21T10:17:38.062Z,14.95
2023-02-21T10:20:12.857Z,13.20
2023-02-21T10:22:42.174Z,15.68
2023-02-21T10:25:21.238Z,13.20
2023-02-21T10:27:51.590Z,11.90
2023-02-21T10:30:25.771Z,11.20
2023-02-21T10:32:52.912Z,13.52
2023-02-21T10:35:19.731Z,13.38
2023-02-21T10:37:49.766Z,14.23
2023-02-21T10:40:28.133Z,10.40
2023-02-21T10:43:01.231Z,10.77
2023-02-21T10:45:34.885Z,10.70
2023-02-21T10:48:05.273Z,9.73
2023-02-21T10:50:41.150Z,11.10
2023-02-21T10:53:08.681Z,12.82
2023-02-21T10:55:35.553Z,11.65
2023-02-21T10:58:18.881Z,9.90
2023-02-21T11:00:46.339Z,10.15
2023-02-21T11:03:20.992Z,9.35
2023-02-21T11:05:49.896Z,11.95
2023-02-21T11:08:35.533Z,10.30
2023-02-21T11:11:02.523Z,8.18
2023-02-21T11:13:32.335Z,9.25
2023-02-21T11:16:10.355Z,9.43
2023-02-21T11:18:37.484Z,9.67
2023-02-21T11:21:13.702Z,8.45
2023-02-21T11:23:47.086Z,8.68
2023-02-21T11:26:15.129Z,10.23
2023-02-21T11:28:44.650Z,7.20
2023-02-21T11:31:18.147Z,9.23
2023-02-21T11:33:54.997Z,7.50
2023-02-21T11:36:28.335Z,8.85
2023-02-21T11:39:07.240Z,8.00
2023-02-21T11:44:27.339Z,8.27
2023-02-21T11:49:32.775Z,9.63
2023-02-21T11:52:03.047Z,7.22
2023-02-21T11:54:30.905Z,8.13
2023-02-21T11:57:04.010Z,9.80
2023-02-21T11:59:43.041Z,9.25
2023-02-21T12:02:43.837Z,8.75
2023-02-21T12:05:25.268Z,10.13
2023-02-21T12:08:08.977Z,10.30
2023-02-21T12:10:49.053Z,10.60
2023-02-21T12:13:26.258Z,8.50
2023-02-21T12:16:02.995Z,9.90
2023-02-21T12:18:50.657Z,10.40
2023-02-21T12:21:38.917Z,10.00
2023-02-21T12:24:17.726Z,10.53
2023-02-21T12:26:51.693Z,9.00
2023-02-21T12:29:35.886Z,10.00
2023-02-21T12:32:27.722Z,10.45
2023-02-21T12:35:11.972Z,11.70
2023-02-21T12:37:46.179Z,9.10
2023-02-21T12:40:20.477Z,9.30
2023-02-21T12:43:02.828Z,8.32
2023-02-21T12:45:44.926Z,10.88
2023-02-21T12:48:20.860Z,8.70
2023-02-21T12:50:52.678Z,8.75
2023-02-21T12:53:24.208Z,8.70
2023-02-21T12:55:55.506Z,10.15
2023-02-21T12:58:30.336Z,9.43
2023-02-21T13:01:01.791Z,9.77
2023-02-21T13:03:40.986Z,9.23
2023-02-21T13:06:15.693Z,9.55
2023-02-21T13:08:53.168Z,9.07
2023-02-21T13:11:26.610Z,9.10
2023-02-21T13:13:53.426Z,9.35
2023-02-21T13:16:20.933Z,10.20
2023-02-21T13:18:53.395Z,8.80
2023-02-21T13:21:31.664Z,10.18
2023-02-21T13:24:03.503Z,11.32
2023-02-21T13:26:42.920Z,9.75
2023-02-21T13:29:17.510Z,10.88
2023-02-21T13:31:44.688Z,11.30
2023-02-21T13:34:19.123Z,11.00
2023-02-21T13:36:46.968Z,9.23
2023-02-21T13:39:16.704Z,9.50
2023-02-21T13:41:45.982Z,10.77
2023-02-21T13:44:17.605Z,11.95
2023-02-21T13:47:09.974Z,11.13
2023-02-21T13:49:54.382Z,11.20
2023-02-21T13:52:51.598Z,9.95
2023-02-21T13:55:27.067Z,10.15
2023-02-21T13:58:33.267Z,11.02
2023-02-21T14:01:40.508Z,10.98
2023-02-21T14:04:44.547Z,10.80
2023-02-21T14:07:12.881Z,9.50
2023-02-21T14:09:41.628Z,14.45
2023-02-21T14:12:09.147Z,14.15
2023-02-21T14:14:38.217Z,18.15
2023-02-21T14:17:07.436Z,12.45
2023-02-21T14:19:37.238Z,10.23
2023-02-21T14:22:10.335Z,10.80
2023-02-21T14:24:42.183Z,9.07
2023-02-21T14:27:37.785Z,12.20
2023-02-21T14:30:34.397Z,13.35
2023-02-21T14:33:15.132Z,10.60
2023-02-21T14:35:47.694Z,8.32
2023-02-21T14:38:20.542Z,9.15
2023-02-21T14:41:01.272Z,9.98
2023-02-21T14:43:57.663Z,9.52
2023-02-21T14:46:42.052Z,9.20
2023-02-21T14:49:51.173Z,8.27
2023-02-21T14:52:47.294Z,8.32
2023-02-21T14:55:43.834Z,8.15
2023-02-21T14:58:38.951Z,8.45
2023-02-21T15:01:16.294Z,8.23
2023-02-21T15:03:47.801Z,7.78
2023-02-21T15:06:18.912Z,8.57
2023-02-21T15:08:47.968Z,8.23
2023-02-21T15:13:48.530Z,7.68
2023-02-21T15:16:18.688Z,8.48
2023-02-21T15:18:58.771Z,8.77
2023-02-21T15:21:25.594Z,9.30
2023-02-21T15:24:01.729Z,11.13
2023-02-21T15:26:29.738Z,11.10
2023-02-21T15:29:09.258Z,10.43
2023-02-21T15:31:39.577Z,10.77
2023-02-21T15:34:06.531Z,10.02
2023-02-21T15:36:33.801Z,11.38
2023-02-21T15:39:05.480Z,11.38
2023-02-21T15:41:36.648Z,11.07
2023-02-21T15:44:08.592Z,11.13
2023-02-21T15:46:42.593Z,10.82
2023-02-21T15:49:17.502Z,10.68
2023-02-21T15:51:44.345Z,16.92
2023-02-21T15:54:24.377Z,13.45
2023-02-21T15:57:01.902Z,13.88
2023-02-21T15:59:31.417Z,12.57
2023-02-21T16:02:22.235Z,17.67
2023-02-21T16:04:50.501Z,13.32
2023-02-21T16:07:21.686Z,12.35
2023-02-21T16:09:51.172Z,10.60
2023-02-21T16:12:32.976Z,10.13
2023-02-21T16:15:04.881Z,11.00
2023-02-21T16:17:33.861Z,10.50
2023-02-21T16:22:38.734Z,9.65
2023-02-21T16:25:21.846Z,8.23
2023-02-21T16:27:51.455Z,9.27
2023-02-21T16:30:22.691Z,10.15
2023-02-21T16:32:51.163Z,9.90
2023-02-21T16:35:20.301Z,7.35
2023-02-21T16:37:48.542Z,8.68
2023-02-21T16:40:17.144Z,11.13
2023-02-21T16:42:43.918Z,11.20
2023-02-21T16:45:10.684Z,9.88
2023-02-21T16:47:38.797Z,9.75
2023-02-21T16:50:06.946Z,10.90
2023-02-21T16:52:33.683Z,9.97
2023-02-21T16:55:00.538Z,9.82
2023-02-21T16:57:27.382Z,9.30
2023-02-21T16:59:54.618Z,8.60
2023-02-21T17:02:21.381Z,10.95
2023-02-21T17:04:49.502Z,10.20
2023-02-21T17:07:16.404Z,10.33
2023-02-21T17:09:43.202Z,8.77
2023-02-21T17:12:12.574Z,10.38
2023-02-21T17:14:39.308Z,9.57
2023-02-21T17:17:06.043Z,9.18
2023-02-21T17:19:32.804Z,9.57
2023-02-21T17:22:00.914Z,10.55
2023-02-21T17:24:27.764Z,9.60
2023-02-21T17:26:54.559Z,10.18
2023-02-21T17:29:21.542Z,11.20
2023-02-21T17:31:52.348Z,10.52
2023-02-21T17:34:19.156Z,10.20
2023-02-21T17:36:49.016Z,9.73
2023-02-21T17:39:17.561Z,11.27
2023-02-21T17:41:47.448Z,10.13
2023-02-21T17:44:14.447Z,9.30
2023-02-21T17:46:46.442Z,10.07
2023-02-21T17:49:13.252Z,11.88
2023-02-21T17:51:40.001Z,10.88
2023-02-21T17:54:06.723Z,11.90
2023-02-21T17:56:34.770Z,11.07
2023-02-21T17:59:01.527Z,12.37
2023-02-21T18:01:28.315Z,11.55
2023-02-21T18:03:55.260Z,11.18
2023-02-21T18:06:22.056Z,11.27
2023-02-21T18:08:48.962Z,11.25
2023-02-21T18:11:17.964Z,12.63
2023-02-21T18:13:46.290Z,11.60
2023-02-21T18:16:13.563Z,10.35
2023-02-21T18:18:40.617Z,10.77
2023-02-21T18:21:08.268Z,17.98
2023-02-21T18:23:35.750Z,25.50
2023-02-21T18:26:02.901Z,22.27
2023-02-21T18:28:30.097Z,19.20
2023-02-21T18:30:58.334Z,15.82
2023-02-21T18:33:26.256Z,17.65
2023-02-21T18:35:53.270Z,16.33
2023-02-21T18:38:20.407Z,16.25
2023-02-21T18:40:47.234Z,17.10
2023-02-21T18:43:17.676Z,17.42
2023-02-21T18:45:44.668Z,18.20
2023-02-21T18:48:12.822Z,17.05
2023-02-21T18:50:39.964Z,17.52
2023-02-21T18:53:06.749Z,15.45
2023-02-21T18:55:33.609Z,17.70
2023-02-21T18:58:00.640Z,17.50
2023-02-21T19:00:28.505Z,17.88
2023-02-21T19:02:58.687Z,19.52
2023-02-21T19:05:27.546Z,18.13
2023-02-21T19:07:54.582Z,18.42
2023-02-21T19:10:23.580Z,15.90
2023-02-21T19:15:17.859Z,17.95
2023-02-21T19:17:44.762Z,16.92
2023-02-21T19:20:12.650Z,20.48
2023-02-21T19:22:40.864Z,24.15
2023-02-21T19:25:08.018Z,23.00
2023-02-21T19:27:34.748Z,20.45
2023-02-21T19:30:01.463Z,17.27
2023-02-21T19:32:28.376Z,19.45
2023-02-21T19:34:55.317Z,18.55
2023-02-21T19:37:22.208Z,18.77
2023-02-21T19:39:50.316Z,18.67
2023-02-21T19:42:17.042Z,18.57
2023-02-21T19:44:43.787Z,20.52
2023-02-21T19:47:10.512Z,22.20
2023-02-21T19:49:37.277Z,18.48
2023-02-21T19:52:04.302Z,18.17
2023-02-21T19:54:31.574Z,21.45
2023-02-21T19:56:59.657Z,24.65
2023-02-21T19:59:26.401Z,25.53
2023-02-21T20:01:53.340Z,19.58
2023-02-21T20:04:20.456Z,20.17
2023-02-21T20:06:47.265Z,22.02
2023-02-21T20:09:14.169Z,20.60
2023-02-21T20:11:40.951Z,17.33
2023-02-21T20:14:10.233Z,18.17
2023-02-21T20:16:38.392Z,18.20
2023-02-21T20:19:05.163Z,18.88
2023-02-21T20:21:32.135Z,18.60
2023-02-21T20:23:59.023Z,16.33
2023-02-21T20:26:26.777Z,17.33
2023-02-21T20:28:54.528Z,17.58
2023-02-21T20:31:25.813Z,17.35
2023-02-21T20:33:52.581Z,18.58
2023-02-21T20:36:27.616Z,22.55
2023-02-21T20:38:54.327Z,22.45
2023-02-21T20:41:21.242Z,19.05
2023-02-21T20:43:48.015Z,18.13
2023-02-21T20:46:22.404Z,17.27
2023-02-21T20:48:49.212Z,14.40
2023-02-21T20:51:16.591Z,17.00
2023-02-21T20:53:43.749Z,14.45
2023-02-21T20:56:10.889Z,16.65
2023-02-21T20:58:37.621Z,16.25
2023-02-21T21:01:04.940Z,17.10
2023-02-21T21:03:33.056Z,14.98
2023-02-21T21:06:00.164Z,13.13
2023-02-21T21:08:26.934Z,14.93
2023-02-21T21:10:53.719Z,15.10
2023-02-21T21:13:20.519Z,15.95
2023-02-21T21:15:47.496Z,15.60
2023-02-21T21:18:14.286Z,15.35
2023-02-21T21:20:42.421Z,17.00
2023-02-21T21:23:09.201Z,14.60
2023-02-21T21:25:36.761Z,15.05
2023-02-21T21:28:05.024Z,14.18
2023-02-21T21:30:31.879Z,13.23
2023-02-21T21:32:59.179Z,12.90
2023-02-21T21:35:26.196Z,17.60
2023-02-21T21:37:54.307Z,15.98
2023-02-21T21:40:22.061Z,14.10
2023-02-21T21:42:50.748Z,14.73
2023-02-21T21:45:19.271Z,14.70
2023-02-21T21:47:47.180Z,15.10
2023-02-21T21:50:14.584Z,15.38
2023-02-21T21:52:42.540Z,15.07
2023-02-21T21:55:18.857Z,16.50
2023-02-21T21:57:45.794Z,16.10
2023-02-21T22:00:15.094Z,15.88
2023-02-21T22:02:41.875Z,15.50
2023-02-21T22:05:08.700Z,11.77
2023-02-21T22:07:35.420Z,14.85
2023-02-21T22:10:02.169Z,14.25
2023-02-21T22:12:30.274Z,13.15
2023-02-21T22:14:57.085Z,14.27
2023-02-21T22:17:23.833Z,13.40
2023-02-21T22:19:50.597Z,13.80
2023-02-21T22:22:17.307Z,13.70
2023-02-21T22:24:44.129Z,11.15
2023-02-21T22:27:10.841Z,13.63
2023-02-21T22:29:38.903Z,13.35
2023-02-21T22:32:06.034Z,14.37
2023-02-21T22:34:32.818Z,12.65
2023-02-21T22:36:59.551Z,12.73
2023-02-21T22:39:27.346Z,12.60
2023-02-21T22:41:54.562Z,11.23
2023-02-21T22:44:21.646Z,12.98
2023-02-21T22:46:50.129Z,13.00
2023-02-21T22:49:17.011Z,11.48
2023-02-21T22:51:44.080Z,12.25
2023-02-21T22:54:12.359Z,12.48
2023-02-21T22:56:39.071Z,12.00
2023-02-21T22:59:06.213Z,12.15
2023-02-21T23:01:33.389Z,11.82
2023-02-21T23:04:01.500Z,12.18
2023-02-21T23:06:28.216Z,12.70
2023-02-21T23:08:54.920Z,11.05
2023-02-21T23:11:23.069Z,13.02
2023-02-21T23:13:50.263Z,11.98
2023-02-21T23:16:19.283Z,10.95
2023-02-21T23:18:46.288Z,11.85
2023-02-21T23:21:15.089Z,11.73
2023-02-21T23:26:08.611Z,11.65
2023-02-21T23:28:35.365Z,11.13
2023-02-21T23:31:02.165Z,11.18
2023-02-21T23:33:30.721Z,11.27
2023-02-21T23:35:58.289Z,11.15
2023-02-21T23:38:27.604Z,10.75
2023-02-21T23:40:56.486Z,11.32
2023-02-21T23:43:25.161Z,12.07
2023-02-21T23:45:52.686Z,12.35
2023-02-21T23:48:19.505Z,10.45
2023-02-21T23:50:47.412Z,11.02
2023-02-21T23:53:16.288Z,12.60
2023-02-21T23:55:45.422Z,11.68
2023-02-21T23:58:14.698Z,12.10
